sensor_id;sensor_type;location;lat;lon;timestamp;temperature;humidity
70214;DHT22;60138;55.808;37.078;2023-07-31T00:00:28;14.19;67.83
70214;DHT22;60138;55.808;37.078;2023-07-31T00:02:54;14.15;67.90
70214;DHT22;60138;55.808;37.078;2023-07-31T00:05:20;14.12;68.01
70214;DHT22;60138;55.808;37.078;2023-07-31T00:07:46;14.08;67.88
70214;DHT22;60138;55.808;37.078;2023-07-31T00:10:12;14.01;67.94
70214;DHT22;60138;55.808;37.078;2023-07-31T00:12:39;13.99;68.05
70214;DHT22;60138;55.808;37.078;2023-07-31T00:15:06;13.97;68.23
70214;DHT22;60138;55.808;37.078;2023-07-31T00:17:32;13.97;68.34
70214;DHT22;60138;55.808;37.078;2023-07-31T00:19:58;13.97;68.49
70214;DHT22;60138;55.808;37.078;2023-07-31T00:22:24;13.96;68.71
70214;DHT22;60138;55.808;37.078;2023-07-31T00:24:50;13.97;68.87
70214;DHT22;60138;55.808;37.078;2023-07-31T00:27:15;13.94;68.94
70214;DHT22;60138;55.808;37.078;2023-07-31T00:29:42;13.92;68.94
70214;DHT22;60138;55.808;37.078;2023-07-31T00:32:08;13.88;68.94
70214;DHT22;60138;55.808;37.078;2023-07-31T00:34:37;13.85;68.84
70214;DHT22;60138;55.808;37.078;2023-07-31T00:37:03;13.82;68.84
70214;DHT22;60138;55.808;37.078;2023-07-31T00:39:30;13.79;68.82
70214;DHT22;60138;55.808;37.078;2023-07-31T00:41:56;13.77;68.87
70214;DHT22;60138;55.808;37.078;2023-07-31T00:44:22;13.75;68.87
70214;DHT22;60138;55.808;37.078;2023-07-31T00:46:48;13.73;68.79
70214;DHT22;60138;55.808;37.078;2023-07-31T00:49:14;13.70;69.04
70214;DHT22;60138;55.808;37.078;2023-07-31T00:51:40;13.68;69.09
70214;DHT22;60138;55.808;37.078;2023-07-31T00:54:06;13.65;69.24
70214;DHT22;60138;55.808;37.078;2023-07-31T00:56:32;13.61;69.23
70214;DHT22;60138;55.808;37.078;2023-07-31T00:58:58;13.58;69.27
70214;DHT22;60138;55.808;37.078;2023-07-31T01:01:24;13.53;69.30
70214;DHT22;60138;55.808;37.078;2023-07-31T01:03:51;13.50;69.54
70214;DHT22;60138;55.808;37.078;2023-07-31T01:09:03;13.43;69.55
70214;DHT22;60138;55.808;37.078;2023-07-31T01:11:31;13.40;69.78
70214;DHT22;60138;55.808;37.078;2023-07-31T01:14:00;13.39;69.71
70214;DHT22;60138;55.808;37.078;2023-07-31T01:16:27;13.36;69.77
70214;DHT22;60138;55.808;37.078;2023-07-31T01:18:53;13.35;69.85
70214;DHT22;60138;55.808;37.078;2023-07-31T01:26:28;13.34;70.37
70214;DHT22;60138;55.808;37.078;2023-07-31T01:32:01;13.33;70.29
70214;DHT22;60138;55.808;37.078;2023-07-31T01:34:27;13.31;70.20
70214;DHT22;60138;55.808;37.078;2023-07-31T01:36:54;13.30;70.29
70214;DHT22;60138;55.808;37.078;2023-07-31T01:39:20;13.25;70.26
70214;DHT22;60138;55.808;37.078;2023-07-31T01:41:45;13.24;70.22
70214;DHT22;60138;55.808;37.078;2023-07-31T01:44:11;13.24;70.33
70214;DHT22;60138;55.808;37.078;2023-07-31T01:46:37;13.22;70.40
70214;DHT22;60138;55.808;37.078;2023-07-31T01:49:05;13.21;70.43
70214;DHT22;60138;55.808;37.078;2023-07-31T01:51:30;13.22;70.54
70214;DHT22;60138;55.808;37.078;2023-07-31T01:53:56;13.23;70.69
70214;DHT22;60138;55.808;37.078;2023-07-31T01:56:22;13.22;70.71
70214;DHT22;60138;55.808;37.078;2023-07-31T01:58:48;13.21;70.74
70214;DHT22;60138;55.808;37.078;2023-07-31T02:01:14;13.20;70.74
70214;DHT22;60138;55.808;37.078;2023-07-31T02:03:39;13.21;70.72
70214;DHT22;60138;55.808;37.078;2023-07-31T02:06:05;13.19;70.83
70214;DHT22;60138;55.808;37.078;2023-07-31T02:08:31;13.20;70.88
70214;DHT22;60138;55.808;37.078;2023-07-31T02:10:56;13.20;70.81
70214;DHT22;60138;55.808;37.078;2023-07-31T02:13:23;13.22;70.88
70214;DHT22;60138;55.808;37.078;2023-07-31T02:15:49;13.23;71.03
70214;DHT22;60138;55.808;37.078;2023-07-31T02:18:15;13.25;71.08
70214;DHT22;60138;55.808;37.078;2023-07-31T02:20:40;13.26;71.21
70214;DHT22;60138;55.808;37.078;2023-07-31T02:23:06;13.27;71.13
70214;DHT22;60138;55.808;37.078;2023-07-31T02:25:32;13.27;71.07
70214;DHT22;60138;55.808;37.078;2023-07-31T02:27:58;13.27;71.09
70214;DHT22;60138;55.808;37.078;2023-07-31T02:30:25;13.29;71.05
70214;DHT22;60138;55.808;37.078;2023-07-31T02:32:50;13.30;71.09
70214;DHT22;60138;55.808;37.078;2023-07-31T02:35:16;13.30;71.19
70214;DHT22;60138;55.808;37.078;2023-07-31T02:37:42;13.32;71.32
70214;DHT22;60138;55.808;37.078;2023-07-31T02:40:08;13.32;71.51
70214;DHT22;60138;55.808;37.078;2023-07-31T02:42:34;13.34;71.47
70214;DHT22;60138;55.808;37.078;2023-07-31T02:45:00;13.37;71.37
70214;DHT22;60138;55.808;37.078;2023-07-31T02:47:26;13.39;71.71
70214;DHT22;60138;55.808;37.078;2023-07-31T02:49:52;13.41;71.62
70214;DHT22;60138;55.808;37.078;2023-07-31T02:52:17;13.43;71.59
70214;DHT22;60138;55.808;37.078;2023-07-31T02:54:43;13.47;71.71
70214;DHT22;60138;55.808;37.078;2023-07-31T02:57:09;13.49;71.86
70214;DHT22;60138;55.808;37.078;2023-07-31T02:59:35;13.51;71.86
70214;DHT22;60138;55.808;37.078;2023-07-31T03:02:01;13.55;71.89
70214;DHT22;60138;55.808;37.078;2023-07-31T03:04:27;13.58;71.85
70214;DHT22;60138;55.808;37.078;2023-07-31T03:06:53;13.63;71.84
70214;DHT22;60138;55.808;37.078;2023-07-31T03:09:19;13.66;71.80
70214;DHT22;60138;55.808;37.078;2023-07-31T03:11:45;13.71;71.88
70214;DHT22;60138;55.808;37.078;2023-07-31T03:14:11;13.73;71.99
70214;DHT22;60138;55.808;37.078;2023-07-31T03:16:37;13.77;71.99
70214;DHT22;60138;55.808;37.078;2023-07-31T03:19:04;13.81;71.99
70214;DHT22;60138;55.808;37.078;2023-07-31T03:21:30;13.85;72.09
70214;DHT22;60138;55.808;37.078;2023-07-31T03:23:56;13.89;72.31
70214;DHT22;60138;55.808;37.078;2023-07-31T03:26:22;13.95;72.37
70214;DHT22;60138;55.808;37.078;2023-07-31T03:28:48;14.00;72.25
70214;DHT22;60138;55.808;37.078;2023-07-31T03:31:14;14.06;72.05
70214;DHT22;60138;55.808;37.078;2023-07-31T03:33:39;14.10;72.05
70214;DHT22;60138;55.808;37.078;2023-07-31T03:36:05;14.13;71.88
70214;DHT22;60138;55.808;37.078;2023-07-31T03:38:31;14.15;71.87
70214;DHT22;60138;55.808;37.078;2023-07-31T03:40:57;14.22;72.45
70214;DHT22;60138;55.808;37.078;2023-07-31T03:43:23;14.28;72.24
70214;DHT22;60138;55.808;37.078;2023-07-31T03:45:48;14.32;72.10
70214;DHT22;60138;55.808;37.078;2023-07-31T03:48:15;14.36;71.75
70214;DHT22;60138;55.808;37.078;2023-07-31T03:50:41;14.41;71.80
70214;DHT22;60138;55.808;37.078;2023-07-31T03:53:07;14.45;72.31
70214;DHT22;60138;55.808;37.078;2023-07-31T03:55:32;14.50;71.86
70214;DHT22;60138;55.808;37.078;2023-07-31T03:57:58;14.53;71.63
70214;DHT22;60138;55.808;37.078;2023-07-31T04:00:24;14.58;71.61
70214;DHT22;60138;55.808;37.078;2023-07-31T04:02:51;14.62;71.61
70214;DHT22;60138;55.808;37.078;2023-07-31T04:05:16;14.65;71.65
70214;DHT22;60138;55.808;37.078;2023-07-31T04:07:43;14.68;71.70
70214;DHT22;60138;55.808;37.078;2023-07-31T04:10:09;14.71;71.74
70214;DHT22;60138;55.808;37.078;2023-07-31T04:12:35;14.79;71.69
70214;DHT22;60138;55.808;37.078;2023-07-31T04:15:01;14.84;71.55
70214;DHT22;60138;55.808;37.078;2023-07-31T04:17:27;14.92;72.24
70214;DHT22;60138;55.808;37.078;2023-07-31T04:19:53;15.03;71.71
70214;DHT22;60138;55.808;37.078;2023-07-31T04:22:19;15.13;71.68
70214;DHT22;60138;55.808;37.078;2023-07-31T04:24:44;15.19;71.30
70214;DHT22;60138;55.808;37.078;2023-07-31T04:27:10;15.25;71.13
70214;DHT22;60138;55.808;37.078;2023-07-31T04:29:36;15.29;71.31
70214;DHT22;60138;55.808;37.078;2023-07-31T04:32:02;15.36;70.96
70214;DHT22;60138;55.808;37.078;2023-07-31T04:34:27;15.40;70.87
70214;DHT22;60138;55.808;37.078;2023-07-31T04:36:53;15.43;70.81
70214;DHT22;60138;55.808;37.078;2023-07-31T04:39:19;15.47;70.61
70214;DHT22;60138;55.808;37.078;2023-07-31T04:41:45;15.54;70.47
70214;DHT22;60138;55.808;37.078;2023-07-31T04:44:10;15.59;70.35
70214;DHT22;60138;55.808;37.078;2023-07-31T04:46:36;15.66;70.29
70214;DHT22;60138;55.808;37.078;2023-07-31T04:49:02;15.72;70.24
70214;DHT22;60138;55.808;37.078;2023-07-31T04:51:27;15.78;70.36
70214;DHT22;60138;55.808;37.078;2023-07-31T04:53:53;15.86;70.03
70214;DHT22;60138;55.808;37.078;2023-07-31T04:56:19;15.92;69.84
70214;DHT22;60138;55.808;37.078;2023-07-31T04:58:45;15.99;69.71
70214;DHT22;60138;55.808;37.078;2023-07-31T05:01:10;16.04;69.55
70214;DHT22;60138;55.808;37.078;2023-07-31T05:03:36;16.11;69.37
70214;DHT22;60138;55.808;37.078;2023-07-31T05:06:02;16.19;69.69
70214;DHT22;60138;55.808;37.078;2023-07-31T05:08:28;16.33;70.40
70214;DHT22;60138;55.808;37.078;2023-07-31T05:10:53;16.51;69.06
70214;DHT22;60138;55.808;37.078;2023-07-31T05:13:20;16.58;68.47
70214;DHT22;60138;55.808;37.078;2023-07-31T05:15:45;16.62;68.39
70214;DHT22;60138;55.808;37.078;2023-07-31T05:18:11;16.65;68.26
70214;DHT22;60138;55.808;37.078;2023-07-31T05:20:37;16.69;68.13
70214;DHT22;60138;55.808;37.078;2023-07-31T05:23:03;16.75;68.04
70214;DHT22;60138;55.808;37.078;2023-07-31T05:25:29;16.79;67.94
70214;DHT22;60138;55.808;37.078;2023-07-31T05:27:55;16.85;67.91
70214;DHT22;60138;55.808;37.078;2023-07-31T05:30:20;16.91;67.59
70214;DHT22;60138;55.808;37.078;2023-07-31T05:32:46;16.98;67.64
70214;DHT22;60138;55.808;37.078;2023-07-31T05:35:12;17.10;66.65
70214;DHT22;60138;55.808;37.078;2023-07-31T05:37:38;17.23;66.47
70214;DHT22;60138;55.808;37.078;2023-07-31T05:40:04;17.41;65.83
70214;DHT22;60138;55.808;37.078;2023-07-31T05:42:30;17.55;65.39
70214;DHT22;60138;55.808;37.078;2023-07-31T05:44:56;17.64;65.18
70214;DHT22;60138;55.808;37.078;2023-07-31T05:47:22;17.66;64.85
70214;DHT22;60138;55.808;37.078;2023-07-31T05:49:48;17.68;64.63
70214;DHT22;60138;55.808;37.078;2023-07-31T05:52:14;17.73;64.59
70214;DHT22;60138;55.808;37.078;2023-07-31T05:54:41;17.73;64.38
70214;DHT22;60138;55.808;37.078;2023-07-31T05:57:07;17.80;64.44
70214;DHT22;60138;55.808;37.078;2023-07-31T05:59:33;17.91;64.56
70214;DHT22;60138;55.808;37.078;2023-07-31T06:01:59;17.99;64.63
70214;DHT22;60138;55.808;37.078;2023-07-31T06:04:24;18.00;64.48
70214;DHT22;60138;55.808;37.078;2023-07-31T06:06:50;18.06;64.40
70214;DHT22;60138;55.808;37.078;2023-07-31T06:09:16;18.13;64.27
70214;DHT22;60138;55.808;37.078;2023-07-31T06:11:42;18.18;63.69
70214;DHT22;60138;55.808;37.078;2023-07-31T06:14:08;18.26;63.28
70214;DHT22;60138;55.808;37.078;2023-07-31T06:16:33;18.35;62.82
70214;DHT22;60138;55.808;37.078;2023-07-31T06:18:59;18.41;62.47
70214;DHT22;60138;55.808;37.078;2023-07-31T06:21:25;18.51;62.37
70214;DHT22;60138;55.808;37.078;2023-07-31T06:23:50;18.53;62.51
70214;DHT22;60138;55.808;37.078;2023-07-31T06:26:16;18.56;62.38
70214;DHT22;60138;55.808;37.078;2023-07-31T06:28:42;18.63;62.36
70214;DHT22;60138;55.808;37.078;2023-07-31T06:31:08;18.79;61.72
70214;DHT22;60138;55.808;37.078;2023-07-31T06:33:33;18.85;61.60
70214;DHT22;60138;55.808;37.078;2023-07-31T06:35:59;18.87;61.41
70214;DHT22;60138;55.808;37.078;2023-07-31T06:38:26;18.93;58.79
70214;DHT22;60138;55.808;37.078;2023-07-31T06:40:52;19.01;60.53
70214;DHT22;60138;55.808;37.078;2023-07-31T06:43:18;19.05;60.61
70214;DHT22;60138;55.808;37.078;2023-07-31T06:45:44;19.11;59.37
70214;DHT22;60138;55.808;37.078;2023-07-31T06:48:10;19.26;59.31
70214;DHT22;60138;55.808;37.078;2023-07-31T06:50:35;19.51;60.44
70214;DHT22;60138;55.808;37.078;2023-07-31T06:53:01;19.58;59.64
70214;DHT22;60138;55.808;37.078;2023-07-31T06:55:27;19.68;57.57
70214;DHT22;60138;55.808;37.078;2023-07-31T06:57:55;19.83;57.13
70214;DHT22;60138;55.808;37.078;2023-07-31T07:00:22;19.91;58.43
70214;DHT22;60138;55.808;37.078;2023-07-31T07:02:48;19.87;58.53
70214;DHT22;60138;55.808;37.078;2023-07-31T07:05:16;19.87;57.74
70214;DHT22;60138;55.808;37.078;2023-07-31T07:07:42;19.94;57.36
70214;DHT22;60138;55.808;37.078;2023-07-31T07:10:08;20.07;57.20
70214;DHT22;60138;55.808;37.078;2023-07-31T07:12:34;20.21;55.52
70214;DHT22;60138;55.808;37.078;2023-07-31T07:15:00;20.40;54.63
70214;DHT22;60138;55.808;37.078;2023-07-31T07:17:28;20.53;56.52
70214;DHT22;60138;55.808;37.078;2023-07-31T07:19:54;20.49;56.41
70214;DHT22;60138;55.808;37.078;2023-07-31T07:22:19;20.59;55.85
70214;DHT22;60138;55.808;37.078;2023-07-31T07:24:45;20.76;54.37
70214;DHT22;60138;55.808;37.078;2023-07-31T07:27:11;20.77;54.20
70214;DHT22;60138;55.808;37.078;2023-07-31T07:29:37;20.88;52.87
70214;DHT22;60138;55.808;37.078;2023-07-31T07:32:04;20.95;53.04
70214;DHT22;60138;55.808;37.078;2023-07-31T07:34:29;20.95;54.50
70214;DHT22;60138;55.808;37.078;2023-07-31T07:36:55;20.94;53.52
70214;DHT22;60138;55.808;37.078;2023-07-31T07:39:21;21.04;52.78
70214;DHT22;60138;55.808;37.078;2023-07-31T07:41:47;21.28;49.44
70214;DHT22;60138;55.808;37.078;2023-07-31T07:44:13;21.58;48.44
70214;DHT22;60138;55.808;37.078;2023-07-31T07:46:39;21.67;48.40
70214;DHT22;60138;55.808;37.078;2023-07-31T07:49:05;21.73;51.50
70214;DHT22;60138;55.808;37.078;2023-07-31T07:51:31;21.76;49.48
70214;DHT22;60138;55.808;37.078;2023-07-31T07:54:00;21.88;47.31
70214;DHT22;60138;55.808;37.078;2023-07-31T07:56:27;22.04;47.45
70214;DHT22;60138;55.808;37.078;2023-07-31T07:58:53;22.18;45.80
70214;DHT22;60138;55.808;37.078;2023-07-31T08:01:20;22.19;47.98
70214;DHT22;60138;55.808;37.078;2023-07-31T08:03:46;22.13;47.27
70214;DHT22;60138;55.808;37.078;2023-07-31T08:06:12;22.24;49.14
70214;DHT22;60138;55.808;37.078;2023-07-31T08:08:38;22.26;49.73
70214;DHT22;60138;55.808;37.078;2023-07-31T08:11:04;22.22;48.22
70214;DHT22;60138;55.808;37.078;2023-07-31T08:13:30;22.21;50.01
70214;DHT22;60138;55.808;37.078;2023-07-31T08:15:55;22.25;46.50
70214;DHT22;60138;55.808;37.078;2023-07-31T08:18:21;22.34;47.47
70214;DHT22;60138;55.808;37.078;2023-07-31T08:20:47;22.50;43.80
70214;DHT22;60138;55.808;37.078;2023-07-31T08:23:13;22.72;43.41
70214;DHT22;60138;55.808;37.078;2023-07-31T08:25:39;22.86;42.06
70214;DHT22;60138;55.808;37.078;2023-07-31T08:28:06;22.94;43.81
70214;DHT22;60138;55.808;37.078;2023-07-31T08:30:32;22.95;45.12
70214;DHT22;60138;55.808;37.078;2023-07-31T08:32:59;23.06;45.93
70214;DHT22;60138;55.808;37.078;2023-07-31T08:35:26;23.10;45.20
70214;DHT22;60138;55.808;37.078;2023-07-31T08:37:52;23.15;41.23
70214;DHT22;60138;55.808;37.078;2023-07-31T08:40:17;23.26;46.36
70214;DHT22;60138;55.808;37.078;2023-07-31T08:42:45;23.26;43.75
70214;DHT22;60138;55.808;37.078;2023-07-31T08:45:17;23.26;42.84
70214;DHT22;60138;55.808;37.078;2023-07-31T08:47:46;23.26;44.77
70214;DHT22;60138;55.808;37.078;2023-07-31T08:50:13;23.25;40.95
70214;DHT22;60138;55.808;37.078;2023-07-31T08:52:39;23.27;43.80
70214;DHT22;60138;55.808;37.078;2023-07-31T08:55:06;23.31;45.63
70214;DHT22;60138;55.808;37.078;2023-07-31T08:57:35;23.30;41.88
70214;DHT22;60138;55.808;37.078;2023-07-31T09:00:02;23.36;42.32
70214;DHT22;60138;55.808;37.078;2023-07-31T09:02:56;23.44;43.90
70214;DHT22;60138;55.808;37.078;2023-07-31T09:05:23;23.60;41.62
70214;DHT22;60138;55.808;37.078;2023-07-31T09:07:50;23.87;41.42
70214;DHT22;60138;55.808;37.078;2023-07-31T09:10:16;24.15;45.64
70214;DHT22;60138;55.808;37.078;2023-07-31T09:12:42;24.38;44.46
70214;DHT22;60138;55.808;37.078;2023-07-31T09:15:09;24.56;38.62
70214;DHT22;60138;55.808;37.078;2023-07-31T09:17:36;24.79;42.96
70214;DHT22;60138;55.808;37.078;2023-07-31T09:20:21;24.87;36.26
70214;DHT22;60138;55.808;37.078;2023-07-31T09:22:48;24.83;35.59
70214;DHT22;60138;55.808;37.078;2023-07-31T09:25:17;24.90;41.19
70214;DHT22;60138;55.808;37.078;2023-07-31T09:27:53;25.01;41.53
70214;DHT22;60138;55.808;37.078;2023-07-31T09:30:19;25.14;40.33
70214;DHT22;60138;55.808;37.078;2023-07-31T09:32:45;25.25;40.76
70214;DHT22;60138;55.808;37.078;2023-07-31T09:35:21;25.46;42.41
70214;DHT22;60138;55.808;37.078;2023-07-31T09:37:55;25.69;42.02
70214;DHT22;60138;55.808;37.078;2023-07-31T09:40:28;25.87;42.76
70214;DHT22;60138;55.808;37.078;2023-07-31T09:42:59;26.03;42.12
70214;DHT22;60138;55.808;37.078;2023-07-31T09:45:26;26.07;42.61
70214;DHT22;60138;55.808;37.078;2023-07-31T09:47:52;26.05;42.92
70214;DHT22;60138;55.808;37.078;2023-07-31T09:50:20;26.03;43.46
70214;DHT22;60138;55.808;37.078;2023-07-31T09:52:46;25.88;42.20
70214;DHT22;60138;55.808;37.078;2023-07-31T09:55:12;25.74;42.84
70214;DHT22;60138;55.808;37.078;2023-07-31T09:57:41;25.57;37.50
70214;DHT22;60138;55.808;37.078;2023-07-31T10:00:07;25.60;42.05
70214;DHT22;60138;55.808;37.078;2023-07-31T10:02:39;25.62;42.29
70214;DHT22;60138;55.808;37.078;2023-07-31T10:05:06;25.66;42.92
70214;DHT22;60138;55.808;37.078;2023-07-31T10:07:37;25.75;41.59
70214;DHT22;60138;55.808;37.078;2023-07-31T10:10:04;25.83;42.31
70214;DHT22;60138;55.808;37.078;2023-07-31T10:12:32;25.97;43.28
70214;DHT22;60138;55.808;37.078;2023-07-31T10:14:59;26.24;43.06
70214;DHT22;60138;55.808;37.078;2023-07-31T10:17:26;26.53;41.72
70214;DHT22;60138;55.808;37.078;2023-07-31T10:19:53;26.71;43.08
70214;DHT22;60138;55.808;37.078;2023-07-31T10:22:20;26.93;42.79
70214;DHT22;60138;55.808;37.078;2023-07-31T10:24:46;27.14;39.82
70214;DHT22;60138;55.808;37.078;2023-07-31T10:27:14;27.38;41.85
70214;DHT22;60138;55.808;37.078;2023-07-31T10:29:41;27.57;41.39
70214;DHT22;60138;55.808;37.078;2023-07-31T10:32:10;27.75;38.53
70214;DHT22;60138;55.808;37.078;2023-07-31T10:34:38;27.97;41.42
70214;DHT22;60138;55.808;37.078;2023-07-31T10:40:05;28.29;40.04
70214;DHT22;60138;55.808;37.078;2023-07-31T10:42:47;28.34;40.02
70214;DHT22;60138;55.808;37.078;2023-07-31T10:45:14;28.48;40.49
70214;DHT22;60138;55.808;37.078;2023-07-31T10:47:48;28.60;40.91
70214;DHT22;60138;55.808;37.078;2023-07-31T10:50:22;28.55;39.98
70214;DHT22;60138;55.808;37.078;2023-07-31T10:52:53;28.45;40.66
70214;DHT22;60138;55.808;37.078;2023-07-31T10:55:40;28.21;39.96
70214;DHT22;60138;55.808;37.078;2023-07-31T10:58:11;27.87;40.55
70214;DHT22;60138;55.808;37.078;2023-07-31T11:03:15;27.26;40.85
70214;DHT22;60138;55.808;37.078;2023-07-31T11:06:13;26.97;39.14
70214;DHT22;60138;55.808;37.078;2023-07-31T11:08:44;26.71;41.37
70214;DHT22;60138;55.808;37.078;2023-07-31T11:11:12;26.48;42.47
70214;DHT22;60138;55.808;37.078;2023-07-31T11:13:50;26.22;42.71
70214;DHT22;60138;55.808;37.078;2023-07-31T11:16:17;25.94;42.10
70214;DHT22;60138;55.808;37.078;2023-07-31T11:18:45;25.74;41.47
70214;DHT22;60138;55.808;37.078;2023-07-31T11:21:16;25.52;42.16
70214;DHT22;60138;55.808;37.078;2023-07-31T11:23:46;25.39;40.32
70214;DHT22;60138;55.808;37.078;2023-07-31T11:26:12;25.35;43.05
70214;DHT22;60138;55.808;37.078;2023-07-31T11:28:38;25.44;43.67
70214;DHT22;60138;55.808;37.078;2023-07-31T11:31:08;25.62;43.92
70214;DHT22;60138;55.808;37.078;2023-07-31T11:33:34;25.87;43.67
70214;DHT22;60138;55.808;37.078;2023-07-31T11:36:00;26.10;43.48
70214;DHT22;60138;55.808;37.078;2023-07-31T11:38:26;26.48;43.19
70214;DHT22;60138;55.808;37.078;2023-07-31T11:40:55;26.84;40.91
70214;DHT22;60138;55.808;37.078;2023-07-31T11:43:22;27.10;40.09
70214;DHT22;60138;55.808;37.078;2023-07-31T11:45:49;27.43;40.77
70214;DHT22;60138;55.808;37.078;2023-07-31T11:48:26;27.52;35.82
70214;DHT22;60138;55.808;37.078;2023-07-31T11:50:54;27.43;38.69
70214;DHT22;60138;55.808;37.078;2023-07-31T11:53:35;27.24;38.01
70214;DHT22;60138;55.808;37.078;2023-07-31T11:56:03;26.92;34.56
70214;DHT22;60138;55.808;37.078;2023-07-31T11:58:30;26.77;39.90
70214;DHT22;60138;55.808;37.078;2023-07-31T12:00:56;26.68;35.49
70214;DHT22;60138;55.808;37.078;2023-07-31T12:03:23;26.65;39.93
70214;DHT22;60138;55.808;37.078;2023-07-31T12:05:48;26.80;41.35
70214;DHT22;60138;55.808;37.078;2023-07-31T12:08:14;28.75;41.49
70214;DHT22;60138;55.808;37.078;2023-07-31T12:10:40;30.25;36.87
70214;DHT22;60138;55.808;37.078;2023-07-31T12:13:08;29.78;35.75
70214;DHT22;60138;55.808;37.078;2023-07-31T12:15:44;29.21;39.20
70214;DHT22;60138;55.808;37.078;2023-07-31T12:18:12;28.57;39.25
70214;DHT22;60138;55.808;37.078;2023-07-31T12:20:59;28.16;38.82
70214;DHT22;60138;55.808;37.078;2023-07-31T12:23:30;27.87;39.39
70214;DHT22;60138;55.808;37.078;2023-07-31T12:26:08;27.59;39.75
70214;DHT22;60138;55.808;37.078;2023-07-31T12:28:45;27.38;40.18
70214;DHT22;60138;55.808;37.078;2023-07-31T12:31:21;27.59;41.11
70214;DHT22;60138;55.808;37.078;2023-07-31T12:33:50;28.72;39.97
70214;DHT22;60138;55.808;37.078;2023-07-31T12:36:18;28.37;39.84
70214;DHT22;60138;55.808;37.078;2023-07-31T12:38:45;27.88;40.86
70214;DHT22;60138;55.808;37.078;2023-07-31T12:41:11;27.50;41.10
70214;DHT22;60138;55.808;37.078;2023-07-31T12:43:40;27.17;41.81
70214;DHT22;60138;55.808;37.078;2023-07-31T12:46:06;26.71;41.28
70214;DHT22;60138;55.808;37.078;2023-07-31T12:48:32;26.48;42.07
70214;DHT22;60138;55.808;37.078;2023-07-31T12:50:58;26.33;43.15
70214;DHT22;60138;55.808;37.078;2023-07-31T12:53:23;26.10;42.61
70214;DHT22;60138;55.808;37.078;2023-07-31T12:55:49;25.95;43.70
70214;DHT22;60138;55.808;37.078;2023-07-31T12:58:15;25.83;43.55
70214;DHT22;60138;55.808;37.078;2023-07-31T13:00:41;25.79;44.08
70214;DHT22;60138;55.808;37.078;2023-07-31T13:03:07;25.71;44.48
70214;DHT22;60138;55.808;37.078;2023-07-31T13:05:33;25.69;44.71
70214;DHT22;60138;55.808;37.078;2023-07-31T13:07:58;25.73;44.66
70214;DHT22;60138;55.808;37.078;2023-07-31T13:10:24;25.75;44.76
70214;DHT22;60138;55.808;37.078;2023-07-31T13:12:50;25.89;44.93
70214;DHT22;60138;55.808;37.078;2023-07-31T13:15:16;26.02;44.61
70214;DHT22;60138;55.808;37.078;2023-07-31T13:17:41;26.19;45.00
70214;DHT22;60138;55.808;37.078;2023-07-31T13:20:07;26.42;45.14
70214;DHT22;60138;55.808;37.078;2023-07-31T13:22:33;26.66;44.70
70214;DHT22;60138;55.808;37.078;2023-07-31T13:24:59;26.86;44.09
70214;DHT22;60138;55.808;37.078;2023-07-31T13:27:25;27.02;44.03
70214;DHT22;60138;55.808;37.078;2023-07-31T13:29:51;27.27;43.52
70214;DHT22;60138;55.808;37.078;2023-07-31T13:32:18;27.41;44.12
70214;DHT22;60138;55.808;37.078;2023-07-31T13:34:44;27.50;43.21
70214;DHT22;60138;55.808;37.078;2023-07-31T13:37:10;27.79;43.57
70214;DHT22;60138;55.808;37.078;2023-07-31T13:39:36;27.99;41.65
70214;DHT22;60138;55.808;37.078;2023-07-31T13:42:07;28.02;43.23
70214;DHT22;60138;55.808;37.078;2023-07-31T13:44:37;28.16;42.39
70214;DHT22;60138;55.808;37.078;2023-07-31T13:47:03;28.70;42.24
70214;DHT22;60138;55.808;37.078;2023-07-31T13:49:29;30.23;42.24
70214;DHT22;60138;55.808;37.078;2023-07-31T13:51:56;30.79;38.87
70214;DHT22;60138;55.808;37.078;2023-07-31T13:54:25;30.65;38.98
70214;DHT22;60138;55.808;37.078;2023-07-31T13:56:52;30.34;40.59
70214;DHT22;60138;55.808;37.078;2023-07-31T13:59:18;29.85;39.01
70214;DHT22;60138;55.808;37.078;2023-07-31T14:01:44;29.28;40.48
70214;DHT22;60138;55.808;37.078;2023-07-31T14:04:10;28.84;41.06
70214;DHT22;60138;55.808;37.078;2023-07-31T14:06:36;28.59;41.76
70214;DHT22;60138;55.808;37.078;2023-07-31T14:09:02;28.46;42.26
70214;DHT22;60138;55.808;37.078;2023-07-31T14:11:30;28.33;42.35
70214;DHT22;60138;55.808;37.078;2023-07-31T14:13:56;28.21;42.45
70214;DHT22;60138;55.808;37.078;2023-07-31T14:16:22;28.05;42.36
70214;DHT22;60138;55.808;37.078;2023-07-31T14:18:48;27.97;42.60
70214;DHT22;60138;55.808;37.078;2023-07-31T14:21:13;27.91;42.77
70214;DHT22;60138;55.808;37.078;2023-07-31T14:23:40;27.86;41.69
70214;DHT22;60138;55.808;37.078;2023-07-31T14:26:06;27.71;42.71
70214;DHT22;60138;55.808;37.078;2023-07-31T14:28:31;27.87;43.29
70214;DHT22;60138;55.808;37.078;2023-07-31T14:30:57;28.37;43.00
70214;DHT22;60138;55.808;37.078;2023-07-31T14:33:23;29.48;41.77
70214;DHT22;60138;55.808;37.078;2023-07-31T14:35:49;29.65;41.82
70214;DHT22;60138;55.808;37.078;2023-07-31T14:38:15;29.73;41.71
70214;DHT22;60138;55.808;37.078;2023-07-31T14:40:41;29.72;41.71
70214;DHT22;60138;55.808;37.078;2023-07-31T14:43:07;29.92;39.68
70214;DHT22;60138;55.808;37.078;2023-07-31T14:45:33;30.34;38.47
70214;DHT22;60138;55.808;37.078;2023-07-31T14:47:59;30.00;40.48
70214;DHT22;60138;55.808;37.078;2023-07-31T14:50:25;29.61;38.91
70214;DHT22;60138;55.808;37.078;2023-07-31T14:52:51;29.26;39.83
70214;DHT22;60138;55.808;37.078;2023-07-31T14:55:18;28.93;39.69
70214;DHT22;60138;55.808;37.078;2023-07-31T14:57:44;28.45;40.48
70214;DHT22;60138;55.808;37.078;2023-07-31T15:00:10;28.08;41.35
70214;DHT22;60138;55.808;37.078;2023-07-31T15:02:39;27.78;42.01
70214;DHT22;60138;55.808;37.078;2023-07-31T15:05:05;27.54;42.71
70214;DHT22;60138;55.808;37.078;2023-07-31T15:07:33;27.28;42.32
70214;DHT22;60138;55.808;37.078;2023-07-31T15:09:59;26.96;43.02
70214;DHT22;60138;55.808;37.078;2023-07-31T15:12:25;26.79;43.32
70214;DHT22;60138;55.808;37.078;2023-07-31T15:14:52;26.62;43.17
70214;DHT22;60138;55.808;37.078;2023-07-31T15:17:18;26.48;43.31
70214;DHT22;60138;55.808;37.078;2023-07-31T15:19:43;26.37;43.83
70214;DHT22;60138;55.808;37.078;2023-07-31T15:22:09;26.41;44.06
70214;DHT22;60138;55.808;37.078;2023-07-31T15:24:35;26.42;44.42
70214;DHT22;60138;55.808;37.078;2023-07-31T15:27:01;26.50;44.45
70214;DHT22;60138;55.808;37.078;2023-07-31T15:29:27;26.46;44.16